createdAt,value
2023-03-06T00:00:53.670Z,7.60
2023-03-06T00:03:24.049Z,7.60
2023-03-06T00:05:50.761Z,7.60
2023-03-06T00:08:20.188Z,7.60
2023-03-06T00:10:49.028Z,7.60
2023-03-06T00:13:23.593Z,7.60
2023-03-06T00:15:59.706Z,7.60
2023-03-06T00:18:28.712Z,7.60
2023-03-06T00:20:59.833Z,7.50
2023-03-06T00:23:27.385Z,7.50
2023-03-06T00:25:54.001Z,7.50
2023-03-06T00:28:20.600Z,7.50
2023-03-06T00:30:49.330Z,7.50
2023-03-06T00:33:16.209Z,7.50
2023-03-06T00:35:45.473Z,7.50
2023-03-06T00:38:15.229Z,7.40
2023-03-06T00:40:41.798Z,7.50
2023-03-06T00:43:16.843Z,7.40
2023-03-06T00:45:43.446Z,7.40
2023-03-06T00:48:24.620Z,7.40
2023-03-06T00:50:51.930Z,7.40
2023-03-06T00:53:19.325Z,7.40
2023-03-06T00:55:46.020Z,7.40
2023-03-06T00:58:15.534Z,7.40
2023-03-06T01:00:42.303Z,7.40
2023-03-06T01:03:12.502Z,7.30
2023-03-06T01:05:45.905Z,7.30
2023-03-06T01:08:16.091Z,7.30
2023-03-06T01:10:45.173Z,7.30
2023-03-06T01:13:13.794Z,7.30
2023-03-06T01:15:40.570Z,7.30
2023-03-06T01:18:09.378Z,7.30
2023-03-06T01:20:39.455Z,7.30
2023-03-06T01:23:07.409Z,7.30
2023-03-06T01:25:36.161Z,7.30
2023-03-06T01:28:05.021Z,7.30
2023-03-06T01:30:40.073Z,7.30
2023-03-06T01:33:11.522Z,7.30
2023-03-06T01:35:41.742Z,7.30
2023-03-06T01:38:11.629Z,7.30
2023-03-06T01:40:38.777Z,7.30
2023-03-06T01:43:23.862Z,7.30
2023-03-06T01:45:57.043Z,7.30
2023-03-06T01:48:26.668Z,7.30
2023-03-06T01:50:59.143Z,7.30
2023-03-06T01:53:28.238Z,7.30
2023-03-06T01:55:55.283Z,7.20
2023-03-06T01:58:26.365Z,7.30
2023-03-06T02:00:53.203Z,7.30
2023-03-06T02:03:25.107Z,7.30
2023-03-06T02:05:59.917Z,7.30
2023-03-06T02:08:31.356Z,7.30
2023-03-06T02:11:22.093Z,7.20
2023-03-06T02:13:53.340Z,7.20
2023-03-06T02:16:26.687Z,7.20
2023-03-06T02:19:03.898Z,7.20
2023-03-06T02:21:37.246Z,7.20
2023-03-06T02:24:36.194Z,7.20
2023-03-06T02:27:07.318Z,7.30
2023-03-06T02:29:35.525Z,7.20
2023-03-06T02:32:13.771Z,7.20
2023-03-06T02:34:40.327Z,7.20
2023-03-06T02:37:09.230Z,7.20
2023-03-06T02:39:44.042Z,7.30
2023-03-06T02:42:19.001Z,7.20
2023-03-06T02:44:47.768Z,7.20
2023-03-06T02:47:17.135Z,7.20
2023-03-06T02:49:47.987Z,7.20
2023-03-06T02:52:14.685Z,7.20
2023-03-06T02:54:42.385Z,7.20
2023-03-06T02:57:12.151Z,7.20
2023-03-06T02:59:41.255Z,7.20
2023-03-06T03:02:09.492Z,7.20
2023-03-06T03:04:38.731Z,7.20
2023-03-06T03:07:08.810Z,7.20
2023-03-06T03:09:39.784Z,7.10
2023-03-06T03:12:07.019Z,7.10
2023-03-06T03:14:35.759Z,7.10
2023-03-06T03:17:04.909Z,7.10
2023-03-06T03:19:35.923Z,7.10
2023-03-06T03:22:02.686Z,7.10
2023-03-06T03:24:29.264Z,7.10
2023-03-06T03:27:02.037Z,7.10
2023-03-06T03:29:28.871Z,7.10
2023-03-06T03:31:58.928Z,7.10
2023-03-06T03:34:29.207Z,7.10
2023-03-06T03:36:58.108Z,7.10
2023-03-06T03:39:26.899Z,7.10
2023-03-06T03:42:00.131Z,7.10
2023-03-06T03:44:27.794Z,7.10
2023-03-06T03:46:59.822Z,7.10
2023-03-06T03:49:26.529Z,7.10
2023-03-06T03:51:57.285Z,7.10
2023-03-06T03:54:29.588Z,7.10
2023-03-06T03:56:56.775Z,7.10
2023-03-06T03:59:36.630Z,7.10
2023-03-06T04:02:15.770Z,7.10
2023-03-06T04:04:55.729Z,7.10
2023-03-06T04:07:25.357Z,7.10
2023-03-06T04:09:54.247Z,7.10
2023-03-06T04:12:21.892Z,7.10
2023-03-06T04:14:48.498Z,7.10
2023-03-06T04:17:16.427Z,7.10
2023-03-06T04:19:47.655Z,7.10
2023-03-06T04:22:14.433Z,7.10
2023-03-06T04:24:43.244Z,7.10
2023-03-06T04:27:09.915Z,7.10
2023-03-06T04:29:36.579Z,7.10
2023-03-06T04:32:12.276Z,7.10
2023-03-06T04:34:39.692Z,7.10
2023-03-06T04:37:06.814Z,7.10
2023-03-06T04:39:38.090Z,7.10
2023-03-06T04:42:07.348Z,7.10
2023-03-06T04:44:36.574Z,7.10
2023-03-06T04:47:03.441Z,7.00
2023-03-06T04:49:30.337Z,7.00
2023-03-06T04:51:57.967Z,7.00
2023-03-06T04:54:28.805Z,7.00
2023-03-06T04:56:55.607Z,6.90
2023-03-06T04:59:22.166Z,6.90
2023-03-06T05:01:48.783Z,6.90
2023-03-06T05:04:15.396Z,6.90
2023-03-06T05:06:46.202Z,6.90
2023-03-06T05:09:17.096Z,6.90
2023-03-06T05:11:46.581Z,6.90
2023-03-06T05:14:20.694Z,6.80
2023-03-06T05:16:53.536Z,6.80
2023-03-06T05:19:20.133Z,6.80
2023-03-06T05:21:48.193Z,6.80
2023-03-06T05:24:14.937Z,6.80
2023-03-06T05:26:47.200Z,6.80
2023-03-06T05:29:13.745Z,6.70
2023-03-06T05:31:42.822Z,6.80
2023-03-06T05:34:13.774Z,6.80
2023-03-06T05:36:42.848Z,6.70
2023-03-06T05:39:09.741Z,6.70
2023-03-06T05:41:36.278Z,6.70
2023-03-06T05:44:13.150Z,6.70
2023-03-06T05:46:42.089Z,6.60
2023-03-06T05:49:11.598Z,6.60
2023-03-06T05:51:41.780Z,6.60
2023-03-06T05:54:10.732Z,6.60
2023-03-06T05:56:40.284Z,6.60
2023-03-06T05:59:15.899Z,6.70
2023-03-06T06:01:42.445Z,6.70
2023-03-06T06:04:11.398Z,6.70
2023-03-06T06:06:45.103Z,6.70
2023-03-06T06:09:16.971Z,6.70
2023-03-06T06:11:47.500Z,6.60
2023-03-06T06:14:14.684Z,6.70
2023-03-06T06:16:47.397Z,6.60
2023-03-06T06:19:20.398Z,6.60
2023-03-06T06:21:52.814Z,6.60
2023-03-06T06:24:24.089Z,6.70
2023-03-06T06:26:55.080Z,6.60
2023-03-06T06:29:24.437Z,6.60
2023-03-06T06:32:03.229Z,6.60
2023-03-06T06:34:32.247Z,6.60
2023-03-06T06:37:07.722Z,6.60
2023-03-06T06:39:34.266Z,6.60
2023-03-06T06:42:25.931Z,6.60
2023-03-06T06:44:51.295Z,6.60
2023-03-06T06:47:22.946Z,6.60
2023-03-06T06:49:54.451Z,6.60
2023-03-06T06:52:33.712Z,6.60
2023-03-06T06:55:02.821Z,6.70
2023-03-06T06:57:29.431Z,6.70
2023-03-06T06:59:58.411Z,6.70
2023-03-06T07:02:27.591Z,6.70
2023-03-06T07:05:04.305Z,6.70
2023-03-06T07:07:37.330Z,6.70
2023-03-06T07:10:15.445Z,6.70
2023-03-06T07:12:42.623Z,6.70
2023-03-06T07:15:11.871Z,6.70
2023-03-06T07:17:47.718Z,6.70
2023-03-06T07:20:16.298Z,6.70
2023-03-06T07:22:50.689Z,6.70
2023-03-06T07:25:23.392Z,6.70
2023-03-06T07:27:54.643Z,6.80
2023-03-06T07:30:28.010Z,6.80
2023-03-06T07:32:58.794Z,6.80
2023-03-06T07:35:26.040Z,6.80
2023-03-06T07:37:55.128Z,6.80
2023-03-06T07:40:24.492Z,6.80
2023-03-06T07:43:06.106Z,6.90
2023-03-06T07:45:44.511Z,6.90
2023-03-06T07:48:22.214Z,6.90
2023-03-06T07:51:03.922Z,6.90
2023-03-06T07:53:42.178Z,7.00
2023-03-06T07:56:09.440Z,7.00
2023-03-06T07:58:38.117Z,7.00
2023-03-06T08:01:10.338Z,7.00
2023-03-06T08:03:37.417Z,7.10
2023-03-06T08:06:27.526Z,7.10
2023-03-06T08:09:03.083Z,7.20
2023-03-06T08:11:38.610Z,7.20
2023-03-06T08:14:06.471Z,7.20
2023-03-06T08:16:33.125Z,7.30
2023-03-06T08:19:01.870Z,7.30
2023-03-06T08:21:28.672Z,7.30
2023-03-06T08:23:55.750Z,7.30
2023-03-06T08:26:24.929Z,7.30
2023-03-06T08:29:04.161Z,7.40
2023-03-06T08:31:40.362Z,7.40
2023-03-06T08:34:11.340Z,7.40
2023-03-06T08:36:40.447Z,7.50
2023-03-06T08:39:08.033Z,7.50
2023-03-06T08:41:35.469Z,7.50
2023-03-06T08:44:06.773Z,7.60
2023-03-06T08:46:34.517Z,7.60
2023-03-06T08:49:05.664Z,7.60
2023-03-06T08:51:33.721Z,7.70
2023-03-06T08:54:00.422Z,7.70
2023-03-06T08:56:30.071Z,7.80
2023-03-06T08:59:00.587Z,7.80
2023-03-06T09:01:29.777Z,7.90
2023-03-06T09:04:01.824Z,7.90
2023-03-06T09:06:39.387Z,7.90
2023-03-06T09:09:09.394Z,7.90
2023-03-06T09:11:41.638Z,8.00
2023-03-06T09:14:08.233Z,8.00
2023-03-06T09:16:38.097Z,8.00
2023-03-06T09:19:04.709Z,8.00
2023-03-06T09:21:34.022Z,8.00
2023-03-06T09:24:03.240Z,8.00
2023-03-06T09:26:45.107Z,8.00
2023-03-06T09:29:13.282Z,7.90
2023-03-06T09:31:41.097Z,7.90
2023-03-06T09:34:11.956Z,7.90
2023-03-06T09:36:54.989Z,7.90
2023-03-06T09:39:23.881Z,7.80
2023-03-06T09:41:56.619Z,7.80
2023-03-06T09:44:26.066Z,7.80
2023-03-06T09:47:10.540Z,7.70
2023-03-06T09:50:10.902Z,7.80
2023-03-06T09:53:02.607Z,7.80
2023-03-06T09:55:37.318Z,7.80
2023-03-06T09:58:25.235Z,7.80
2023-03-06T10:01:11.011Z,7.80
2023-03-06T10:03:49.348Z,7.80
2023-03-06T10:06:31.229Z,7.80
2023-03-06T10:09:18.490Z,7.90
2023-03-06T10:12:16.089Z,7.90
2023-03-06T10:14:57.796Z,7.90
2023-03-06T10:17:29.113Z,8.00
2023-03-06T10:19:57.991Z,8.00
2023-03-06T10:22:36.591Z,8.00
2023-03-06T10:25:27.741Z,8.10
2023-03-06T10:28:05.304Z,8.10
2023-03-06T10:31:00.452Z,8.20
2023-03-06T10:33:48.346Z,8.30
2023-03-06T10:36:19.561Z,8.30
2023-03-06T10:38:48.421Z,8.30
2023-03-06T10:41:38.075Z,8.30
2023-03-06T10:44:04.686Z,8.30
2023-03-06T10:46:45.229Z,8.40
2023-03-06T10:49:34.468Z,8.40
2023-03-06T10:52:22.625Z,8.40
2023-03-06T10:54:50.639Z,8.40
2023-03-06T10:57:24.108Z,8.40
2023-03-06T10:59:56.431Z,8.40
2023-03-06T11:02:31.304Z,8.40
2023-03-06T11:05:01.391Z,8.40
2023-03-06T11:07:36.873Z,8.50
2023-03-06T11:10:17.928Z,8.50
2023-03-06T11:13:01.247Z,8.50
2023-03-06T11:15:29.369Z,8.50
2023-03-06T11:18:04.320Z,8.50
2023-03-06T11:20:52.385Z,8.50
2023-03-06T11:23:40.543Z,8.40
2023-03-06T11:26:19.515Z,8.40
2023-03-06T11:29:01.352Z,8.40
2023-03-06T11:31:39.310Z,8.40
2023-03-06T11:34:18.442Z,8.30
2023-03-06T11:36:54.476Z,8.30
2023-03-06T11:39:36.238Z,8.40
2023-03-06T11:42:29.363Z,8.40
2023-03-06T11:45:30.753Z,8.40
2023-03-06T11:48:15.825Z,8.40
2023-03-06T11:50:48.506Z,8.40
2023-03-06T11:53:19.747Z,8.40
2023-03-06T11:56:10.828Z,8.50
2023-03-06T11:59:21.919Z,8.50
2023-03-06T12:02:21.484Z,8.50
2023-03-06T12:05:21.015Z,8.60
2023-03-06T12:08:17.300Z,8.60
2023-03-06T12:10:51.536Z,8.60
2023-03-06T12:13:43.103Z,8.80
2023-03-06T12:16:29.628Z,8.80
2023-03-06T12:19:25.960Z,8.90
2023-03-06T12:22:01.574Z,9.00
2023-03-06T12:25:07.635Z,9.00
2023-03-06T12:27:52.793Z,9.10
2023-03-06T12:30:51.643Z,9.10
2023-03-06T12:33:37.074Z,9.10
2023-03-06T12:36:33.290Z,9.10
2023-03-06T12:39:22.503Z,9.10
2023-03-06T12:42:23.236Z,9.10
2023-03-06T12:45:10.809Z,9.10
2023-03-06T12:47:44.239Z,9.20
2023-03-06T12:50:45.975Z,9.20
2023-03-06T12:53:28.500Z,9.10
2023-03-06T12:55:58.686Z,9.20
2023-03-06T12:58:33.214Z,9.20
2023-03-06T13:01:39.060Z,9.30
2023-03-06T13:04:29.429Z,9.30
2023-03-06T13:07:14.738Z,9.40
2023-03-06T13:10:15.439Z,9.40
2023-03-06T13:13:19.627Z,9.50
2023-03-06T13:16:29.124Z,9.60
2023-03-06T13:19:03.710Z,9.70
2023-03-06T13:21:42.510Z,9.70
2023-03-06T13:24:22.861Z,9.80
2023-03-06T13:27:01.041Z,9.80
2023-03-06T13:29:36.754Z,9.80
2023-03-06T13:32:15.010Z,9.80
2023-03-06T13:34:53.780Z,9.90
2023-03-06T13:37:37.094Z,9.80
2023-03-06T13:40:03.839Z,9.90
2023-03-06T13:42:43.427Z,9.90
2023-03-06T13:45:41.809Z,9.80
2023-03-06T13:48:43.160Z,9.90
2023-03-06T13:51:24.270Z,9.90
2023-03-06T13:54:24.392Z,10.00
2023-03-06T13:57:05.825Z,10.00
2023-03-06T14:00:09.562Z,10.10
2023-03-06T14:03:03.606Z,10.10
2023-03-06T14:05:51.443Z,10.20
2023-03-06T14:08:24.471Z,10.50
2023-03-06T14:11:09.138Z,10.80
2023-03-06T14:13:47.488Z,11.30
2023-03-06T14:16:21.791Z,11.80
2023-03-06T14:18:53.280Z,12.50
2023-03-06T14:21:44.389Z,13.00
2023-03-06T14:24:19.635Z,13.40
2023-03-06T14:26:50.098Z,13.70
2023-03-06T14:29:28.320Z,13.90
2023-03-06T14:32:04.592Z,14.00
2023-03-06T14:34:41.020Z,14.10
2023-03-06T14:37:20.400Z,14.10
2023-03-06T14:39:58.544Z,14.20
2023-03-06T14:42:29.373Z,14.30
2023-03-06T14:45:06.978Z,14.30
2023-03-06T14:47:36.806Z,14.30
2023-03-06T14:50:30.338Z,14.10
2023-03-06T14:53:05.541Z,14.00
2023-03-06T14:55:36.756Z,13.80
2023-03-06T14:58:10.021Z,13.50
2023-03-06T15:00:50.178Z,13.30
2023-03-06T15:03:27.681Z,13.10
2023-03-06T15:05:54.913Z,13.00
2023-03-06T15:08:27.465Z,12.90
2023-03-06T15:11:02.990Z,12.90
2023-03-06T15:13:33.530Z,12.90
2023-03-06T15:16:06.554Z,12.80
2023-03-06T15:18:56.918Z,12.70
2023-03-06T15:21:28.622Z,12.70
2023-03-06T15:24:00.364Z,12.60
2023-03-06T15:26:40.992Z,12.50
2023-03-06T15:29:10.749Z,12.50
2023-03-06T15:31:44.535Z,12.40
2023-03-06T15:34:23.288Z,12.30
2023-03-06T15:36:59.585Z,12.30
2023-03-06T15:39:36.082Z,12.10
2023-03-06T15:42:22.582Z,12.00
2023-03-06T15:44:56.194Z,11.90
2023-03-06T15:47:27.613Z,11.70
2023-03-06T15:49:58.802Z,11.60
2023-03-06T15:52:27.669Z,11.40
2023-03-06T15:54:59.753Z,11.30
2023-03-06T15:57:30.520Z,11.20
2023-03-06T16:00:01.822Z,11.10
2023-03-06T16:02:38.042Z,11.00
2023-03-06T16:05:14.526Z,10.90
2023-03-06T16:07:41.161Z,10.80
2023-03-06T16:10:13.511Z,10.70
2023-03-06T16:13:02.868Z,10.70
2023-03-06T16:15:32.925Z,10.60
2023-03-06T16:18:02.212Z,10.60
2023-03-06T16:20:30.258Z,10.50
2023-03-06T16:22:57.029Z,10.40
2023-03-06T16:25:26.278Z,10.40
2023-03-06T16:28:00.979Z,10.30
2023-03-06T16:30:32.911Z,10.30
2023-03-06T16:33:05.320Z,10.20
2023-03-06T16:35:37.362Z,10.20
2023-03-06T16:38:04.371Z,10.10
2023-03-06T16:40:42.837Z,10.10
2023-03-06T16:43:17.372Z,10.10
2023-03-06T16:45:44.569Z,10.00
2023-03-06T16:48:15.632Z,10.00
2023-03-06T16:50:42.374Z,9.90
2023-03-06T16:53:13.528Z,9.90
2023-03-06T16:55:40.091Z,9.90
2023-03-06T16:58:10.045Z,9.80
2023-03-06T17:00:36.878Z,9.80
2023-03-06T17:03:03.825Z,9.80
2023-03-06T17:05:35.408Z,9.70
2023-03-06T17:08:05.796Z,9.70
2023-03-06T17:10:32.459Z,9.70
2023-03-06T17:12:59.185Z,9.60
2023-03-06T17:15:26.317Z,9.60
2023-03-06T17:17:53.168Z,9.60
2023-03-06T17:20:26.670Z,9.50
2023-03-06T17:22:55.867Z,9.50
2023-03-06T17:25:22.845Z,9.50
2023-03-06T17:27:58.285Z,9.50
2023-03-06T17:30:27.322Z,9.40
2023-03-06T17:32:56.840Z,9.40
2023-03-06T17:35:23.426Z,9.40
2023-03-06T17:37:51.250Z,9.40
2023-03-06T17:40:20.037Z,9.30
2023-03-06T17:42:46.618Z,9.30
2023-03-06T17:45:16.081Z,9.30
2023-03-06T17:47:55.418Z,9.30
2023-03-06T17:50:25.165Z,9.30
2023-03-06T17:52:54.098Z,9.20
2023-03-06T17:55:24.254Z,9.20
2023-03-06T17:57:59.479Z,9.20
2023-03-06T18:00:26.160Z,9.20
2023-03-06T18:02:58.699Z,9.20
2023-03-06T18:05:28.896Z,9.20
2023-03-06T18:07:58.168Z,9.20
2023-03-06T18:10:27.365Z,9.20
2023-03-06T18:12:58.876Z,9.20
2023-03-06T18:15:33.423Z,9.20
2023-03-06T18:18:00.128Z,9.20
2023-03-06T18:20:33.984Z,9.10
2023-03-06T18:23:03.416Z,9.10
2023-03-06T18:25:31.282Z,9.10
2023-03-06T18:28:02.123Z,9.10
2023-03-06T18:30:29.066Z,9.10
2023-03-06T18:33:00.500Z,9.10
2023-03-06T18:35:35.986Z,9.10
2023-03-06T18:38:04.457Z,9.10
2023-03-06T18:40:33.477Z,9.10
2023-03-06T18:43:00.025Z,9.10
2023-03-06T18:45:28.712Z,9.10
2023-03-06T18:48:00.546Z,9.10
2023-03-06T18:50:27.108Z,9.10
2023-03-06T18:52:53.692Z,9.00
2023-03-06T18:55:20.242Z,9.10
2023-03-06T18:57:46.770Z,9.10
2023-03-06T19:00:19.150Z,9.10
2023-03-06T19:02:47.969Z,9.10
2023-03-06T19:05:14.799Z,9.10
2023-03-06T19:07:41.350Z,9.00
2023-03-06T19:10:10.538Z,9.00
2023-03-06T19:12:39.403Z,9.10
2023-03-06T19:15:09.398Z,9.00
2023-03-06T19:17:40.997Z,9.10
2023-03-06T19:20:10.363Z,9.00
2023-03-06T19:22:37.132Z,9.00
2023-03-06T19:25:10.760Z,9.00
2023-03-06T19:27:38.965Z,9.00
2023-03-06T19:30:10.791Z,9.00
2023-03-06T19:32:37.664Z,9.00
2023-03-06T19:35:06.765Z,9.00
2023-03-06T19:37:37.086Z,9.00
2023-03-06T19:40:07.001Z,9.00
2023-03-06T19:42:34.547Z,9.00
2023-03-06T19:45:01.219Z,9.00
2023-03-06T19:47:33.176Z,8.90
2023-03-06T19:50:02.237Z,8.90
2023-03-06T19:52:28.802Z,8.90
2023-03-06T19:54:57.819Z,8.90
2023-03-06T19:57:28.252Z,8.90
2023-03-06T19:59:56.057Z,8.90
2023-03-06T20:02:26.446Z,8.90
2023-03-06T20:04:57.007Z,8.90
2023-03-06T20:07:24.030Z,8.80
2023-03-06T20:09:51.016Z,8.80
2023-03-06T20:12:17.726Z,8.80
2023-03-06T20:14:46.005Z,8.80
2023-03-06T20:17:15.158Z,8.80
2023-03-06T20:19:46.017Z,8.70
2023-03-06T20:22:15.087Z,8.70
2023-03-06T20:24:41.706Z,8.70
2023-03-06T20:27:08.296Z,8.70
2023-03-06T20:29:35.829Z,8.70
2023-03-06T20:32:05.499Z,8.70
2023-03-06T20:34:32.067Z,8.70
2023-03-06T20:36:58.761Z,8.70
2023-03-06T20:39:29.462Z,8.70
2023-03-06T20:41:56.092Z,8.70
2023-03-06T20:44:23.012Z,8.60
2023-03-06T20:46:51.807Z,8.60
2023-03-06T20:49:21.577Z,8.60
2023-03-06T20:51:51.131Z,8.60
2023-03-06T20:54:17.845Z,8.50
2023-03-06T20:56:47.991Z,8.60
2023-03-06T20:59:17.315Z,8.50
2023-03-06T21:01:45.557Z,8.50
2023-03-06T21:04:14.818Z,8.40
2023-03-06T21:06:45.188Z,8.40
2023-03-06T21:09:13.505Z,8.30
2023-03-06T21:11:40.722Z,8.20
2023-03-06T21:14:13.408Z,8.10
2023-03-06T21:16:43.623Z,8.10
2023-03-06T21:19:10.669Z,8.00
2023-03-06T21:21:37.317Z,8.00
2023-03-06T21:24:05.303Z,7.90
2023-03-06T21:26:36.448Z,7.90
2023-03-06T21:29:06.256Z,7.90
2023-03-06T21:31:35.868Z,7.80
2023-03-06T21:34:06.157Z,7.80
2023-03-06T21:36:33.002Z,7.80
2023-03-06T21:39:05.993Z,7.80
2023-03-06T21:41:34.426Z,7.80
2023-03-06T21:44:06.022Z,7.80
2023-03-06T21:46:36.203Z,7.80
2023-03-06T21:49:04.776Z,7.80
2023-03-06T21:51:31.519Z,7.80
2023-03-06T21:53:58.854Z,7.80
2023-03-06T21:56:27.821Z,7.80
2023-03-06T21:58:55.262Z,7.90
2023-03-06T22:01:30.594Z,7.80
2023-03-06T22:03:58.355Z,7.90
2023-03-06T22:06:28.746Z,7.90
2023-03-06T22:08:59.710Z,7.90
2023-03-06T22:11:29.601Z,7.90
2023-03-06T22:13:58.847Z,8.00
2023-03-06T22:16:29.413Z,7.90
2023-03-06T22:18:58.850Z,8.00
2023-03-06T22:21:28.843Z,8.00
2023-03-06T22:23:57.580Z,8.00
2023-03-06T22:26:29.314Z,8.00
2023-03-06T22:29:02.720Z,8.00
2023-03-06T22:31:29.431Z,8.00
2023-03-06T22:34:00.340Z,8.00
2023-03-06T22:36:31.505Z,8.00
2023-03-06T22:39:02.303Z,8.00
2023-03-06T22:41:34.448Z,8.00
2023-03-06T22:44:04.848Z,8.00
2023-03-06T22:46:33.779Z,8.00
2023-03-06T22:49:01.135Z,8.00
2023-03-06T22:51:33.412Z,7.90
2023-03-06T22:53:59.875Z,7.90
2023-03-06T22:56:27.796Z,8.00
2023-03-06T22:58:54.440Z,8.00
2023-03-06T23:01:28.691Z,7.90
2023-03-06T23:03:57.947Z,7.90
2023-03-06T23:06:26.720Z,7.90
2023-03-06T23:08:59.709Z,7.90
2023-03-06T23:11:30.499Z,7.90
2023-03-06T23:14:19.652Z,7.90
2023-03-06T23:17:06.372Z,7.80
2023-03-06T23:19:56.471Z,7.80
2023-03-06T23:22:49.053Z,7.80
2023-03-06T23:25:34.679Z,7.80
2023-03-06T23:28:01.690Z,7.80
2023-03-06T23:30:30.630Z,7.80
2023-03-06T23:33:00.225Z,7.70
2023-03-06T23:35:30.900Z,7.70
2023-03-06T23:37:57.547Z,7.70
2023-03-06T23:40:26.906Z,7.70
2023-03-06T23:43:07.004Z,7.70
2023-03-06T23:45:33.722Z,7.70
2023-03-06T23:48:00.267Z,7.70
2023-03-06T23:50:29.115Z,7.70
2023-03-06T23:53:01.136Z,7.70
2023-03-06T23:55:27.767Z,7.70
2023-03-06T23:58:01.087Z,7.70
